createdAt,value
2019-02-21T00:01:23.472Z,56.15
2019-02-21T00:03:53.004Z,55.83
2019-02-21T00:06:22.563Z,56.30
2019-02-21T00:08:52.124Z,55.56
2019-02-21T00:11:21.672Z,55.75
2019-02-21T00:13:51.270Z,56.14
2019-02-21T00:16:20.904Z,55.15
2019-02-21T00:18:50.456Z,55.33
2019-02-21T00:21:20.012Z,55.70
2019-02-21T00:23:49.574Z,54.97
2019-02-21T00:26:19.167Z,55.62
2019-02-21T00:28:48.844Z,56.28
2019-02-21T00:31:18.421Z,57.45
2019-02-21T00:33:47.961Z,57.56
2019-02-21T00:36:17.699Z,57.67
2019-02-21T00:38:47.271Z,57.97
2019-02-21T00:41:16.863Z,57.98
2019-02-21T00:43:46.485Z,58.97
2019-02-21T00:46:16.093Z,58.93
2019-02-21T00:48:45.647Z,59.42
2019-02-21T00:51:15.210Z,59.38
2019-02-21T00:53:44.770Z,59.57
2019-02-21T00:56:14.306Z,59.83
2019-02-21T00:58:43.870Z,59.87
2019-02-21T01:01:13.426Z,60.67
2019-02-21T01:03:42.976Z,61.23
2019-02-21T01:06:12.523Z,61.13
2019-02-21T01:08:42.148Z,61.18
2019-02-21T01:11:11.714Z,61.63
2019-02-21T01:13:41.241Z,61.80
2019-02-21T01:16:10.801Z,62.05
2019-02-21T01:18:40.371Z,62.75
2019-02-21T01:21:09.985Z,62.76
2019-02-21T01:23:39.557Z,63.02
2019-02-21T01:26:09.149Z,63.60
2019-02-21T01:28:38.758Z,63.71
2019-02-21T01:31:08.332Z,63.56
2019-02-21T01:33:38.016Z,64.02
2019-02-21T01:36:07.650Z,64.53
2019-02-21T01:38:37.505Z,64.39
2019-02-21T01:41:07.173Z,64.82
2019-02-21T01:43:36.723Z,65.11
2019-02-21T01:46:06.328Z,65.16
2019-02-21T01:48:35.873Z,65.34
2019-02-21T01:51:05.524Z,65.51
2019-02-21T01:53:35.200Z,65.83
2019-02-21T01:56:04.813Z,66.33
2019-02-21T01:58:34.496Z,66.57
2019-02-21T02:01:08.697Z,66.05
2019-02-21T02:03:36.325Z,66.24
2019-02-21T02:06:06.031Z,67.02
2019-02-21T02:08:35.720Z,67.27
2019-02-21T02:11:05.278Z,68.11
2019-02-21T02:13:34.827Z,67.27
2019-02-21T02:16:04.375Z,67.21
2019-02-21T02:18:33.975Z,66.89
2019-02-21T02:21:03.613Z,67.24
2019-02-21T02:23:33.161Z,67.57
2019-02-21T02:26:02.698Z,67.69
2019-02-21T02:28:32.242Z,67.71
2019-02-21T02:31:01.797Z,68.16
2019-02-21T02:33:31.315Z,68.85
2019-02-21T02:36:00.885Z,68.48
2019-02-21T02:38:30.425Z,68.50
2019-02-21T02:41:00.036Z,69.29
2019-02-21T02:43:29.624Z,69.34
2019-02-21T02:45:59.211Z,69.86
2019-02-21T02:48:28.752Z,70.48
2019-02-21T02:50:58.412Z,70.48
2019-02-21T02:53:27.967Z,70.92
2019-02-21T02:55:57.580Z,71.63
2019-02-21T02:58:27.109Z,71.77
2019-02-21T03:00:56.756Z,71.58
2019-02-21T03:03:26.316Z,71.81
2019-02-21T03:05:55.969Z,72.06
2019-02-21T03:08:25.545Z,72.12
2019-02-21T03:10:55.061Z,72.07
2019-02-21T03:13:24.726Z,72.47
2019-02-21T03:15:54.299Z,73.09
2019-02-21T03:18:23.853Z,74.03
2019-02-21T03:20:53.578Z,73.94
2019-02-21T03:23:23.111Z,74.26
2019-02-21T03:25:52.732Z,74.42
2019-02-21T03:28:22.345Z,75.18
2019-02-21T03:30:51.901Z,75.48
2019-02-21T03:33:21.487Z,75.68
2019-02-21T03:35:51.015Z,76.74
2019-02-21T03:38:20.561Z,76.74
2019-02-21T03:40:50.112Z,77.36
2019-02-21T03:43:19.666Z,77.11
2019-02-21T03:45:49.203Z,78.24
2019-02-21T03:48:18.889Z,78.39
2019-02-21T03:50:48.627Z,78.95
2019-02-21T03:53:18.252Z,79.35
2019-02-21T03:55:48.024Z,80.06
2019-02-21T03:58:17.583Z,80.03
2019-02-21T04:00:47.136Z,80.18
2019-02-21T04:03:16.735Z,80.62
2019-02-21T04:05:46.316Z,80.70
2019-02-21T04:08:15.958Z,81.22
2019-02-21T04:10:45.571Z,81.35
2019-02-21T04:13:15.406Z,81.45
2019-02-21T04:15:45.122Z,81.27
2019-02-21T04:18:14.675Z,81.68
2019-02-21T04:20:44.447Z,81.60
2019-02-21T04:23:14.011Z,81.69
2019-02-21T04:25:43.754Z,81.76
2019-02-21T04:28:13.318Z,81.99
2019-02-21T04:30:42.966Z,81.97
2019-02-21T04:33:12.500Z,81.63
2019-02-21T04:35:42.048Z,81.87
2019-02-21T04:38:11.705Z,81.54
2019-02-21T04:40:41.240Z,81.29
2019-02-21T04:43:10.791Z,80.73
2019-02-21T04:45:40.355Z,80.52
2019-02-21T04:48:09.992Z,80.35
2019-02-21T04:50:39.772Z,80.20
2019-02-21T04:53:09.315Z,79.91
2019-02-21T04:55:38.953Z,80.00
2019-02-21T04:58:08.567Z,79.88
2019-02-21T05:00:38.179Z,80.29
2019-02-21T05:03:07.723Z,79.69
2019-02-21T05:05:37.317Z,79.22
2019-02-21T05:08:06.948Z,78.73
2019-02-21T05:10:36.497Z,78.86
2019-02-21T05:13:06.062Z,79.31
2019-02-21T05:15:35.635Z,78.78
2019-02-21T05:18:05.307Z,78.91
2019-02-21T05:20:34.884Z,78.59
2019-02-21T05:23:04.594Z,78.43
2019-02-21T05:25:34.168Z,78.27
2019-02-21T05:28:21.413Z,78.27
2019-02-21T05:30:52.797Z,77.81
2019-02-21T05:33:56.389Z,76.91
2019-02-21T05:36:52.953Z,76.74
2019-02-21T05:39:31.318Z,75.08
2019-02-21T05:42:31.777Z,75.70
2019-02-21T05:45:22.890Z,74.99
2019-02-21T05:48:07.858Z,73.63
2019-02-21T05:50:45.721Z,73.21
2019-02-21T05:53:24.961Z,72.23
2019-02-21T05:56:25.510Z,72.12
2019-02-21T05:59:13.881Z,71.27
2019-02-21T06:02:11.277Z,71.25
2019-02-21T06:05:08.660Z,70.58
2019-02-21T06:07:58.562Z,69.69
2019-02-21T06:11:01.993Z,69.26
2019-02-21T06:13:39.872Z,69.87
2019-02-21T06:16:27.072Z,68.49
2019-02-21T06:19:14.305Z,68.65
2019-02-21T06:22:11.499Z,68.18
2019-02-21T06:24:59.970Z,67.58
2019-02-21T06:27:37.989Z,67.18
2019-02-21T06:30:20.713Z,67.29
2019-02-21T06:32:50.285Z,66.03
2019-02-21T06:35:19.833Z,65.29
2019-02-21T06:37:49.393Z,64.74
2019-02-21T06:40:18.916Z,65.02
2019-02-21T06:42:48.591Z,64.49
2019-02-21T06:45:19.795Z,65.04
2019-02-21T06:47:49.387Z,64.95
2019-02-21T06:50:26.401Z,64.33
2019-02-21T06:52:50.263Z,63.58
2019-02-21T06:55:20.599Z,62.99
2019-02-21T06:57:50.787Z,62.87
2019-02-21T07:00:20.450Z,61.54
2019-02-21T07:02:50.065Z,60.58
2019-02-21T07:05:19.641Z,60.06
2019-02-21T07:07:49.913Z,59.05
2019-02-21T07:10:19.524Z,59.51
2019-02-21T07:12:49.063Z,58.91
2019-02-21T07:15:18.641Z,58.30
2019-02-21T07:17:49.538Z,57.23
2019-02-21T07:20:19.500Z,56.67
2019-02-21T07:22:49.055Z,54.90
2019-02-21T07:25:40.493Z,54.89
2019-02-21T07:28:12.503Z,54.49
2019-02-21T07:30:43.047Z,53.82
2019-02-21T07:33:12.658Z,54.14
2019-02-21T07:35:42.293Z,53.71
2019-02-21T07:38:11.886Z,53.46
2019-02-21T07:40:41.590Z,53.28
2019-02-21T07:43:12.888Z,52.96
2019-02-21T07:45:42.535Z,52.78
2019-02-21T07:48:12.349Z,52.36
2019-02-21T07:50:42.063Z,52.10
2019-02-21T07:53:11.612Z,51.74
2019-02-21T07:55:41.203Z,51.56
2019-02-21T07:58:10.808Z,51.02
2019-02-21T08:00:40.381Z,51.60
2019-02-21T08:03:10.028Z,51.31
2019-02-21T08:05:39.593Z,51.69
2019-02-21T08:08:09.464Z,51.71
2019-02-21T08:10:39.130Z,51.17
2019-02-21T08:13:08.862Z,51.02
2019-02-21T08:15:38.548Z,50.28
2019-02-21T08:18:08.132Z,50.77
2019-02-21T08:20:40.852Z,50.29
2019-02-21T08:23:10.942Z,49.92
2019-02-21T08:25:40.459Z,49.67
2019-02-21T08:28:10.560Z,49.99
2019-02-21T08:30:40.300Z,49.67
2019-02-21T08:33:14.060Z,49.76
2019-02-21T08:35:43.795Z,50.67
2019-02-21T08:38:13.441Z,51.26
2019-02-21T08:40:43.060Z,52.09
2019-02-21T08:43:12.627Z,51.80
2019-02-21T08:45:42.236Z,51.82
2019-02-21T08:48:13.512Z,52.51
2019-02-21T08:50:43.276Z,52.80
2019-02-21T08:53:13.140Z,52.41
2019-02-21T08:55:42.775Z,52.69
2019-02-21T08:58:12.438Z,52.20
2019-02-21T09:00:42.159Z,51.56
2019-02-21T09:03:11.803Z,51.77
2019-02-21T09:05:41.323Z,51.64
2019-02-21T09:08:10.957Z,50.93
2019-02-21T09:10:40.662Z,50.97
2019-02-21T09:13:10.379Z,51.04
2019-02-21T09:15:40.120Z,51.46
2019-02-21T09:18:09.787Z,51.40
2019-02-21T09:20:39.314Z,51.27
2019-02-21T09:23:08.900Z,51.25
2019-02-21T09:25:38.575Z,50.85
2019-02-21T09:28:08.224Z,50.00
2019-02-21T09:30:37.775Z,49.73
2019-02-21T09:33:17.088Z,49.45
2019-02-21T09:35:38.825Z,48.86
2019-02-21T09:38:08.388Z,49.21
2019-02-21T09:40:37.955Z,48.03
2019-02-21T09:43:07.605Z,47.79
2019-02-21T09:45:37.242Z,47.88
2019-02-21T09:48:06.793Z,48.58
2019-02-21T09:50:36.408Z,48.40
2019-02-21T09:53:06.036Z,47.51
2019-02-21T09:55:35.601Z,48.44
2019-02-21T09:58:05.183Z,48.13
2019-02-21T10:00:35.973Z,47.95
2019-02-21T10:03:05.959Z,47.42
2019-02-21T10:05:35.594Z,47.58
2019-02-21T10:08:05.241Z,48.06
2019-02-21T10:10:34.822Z,47.60
2019-02-21T10:13:04.728Z,47.19
2019-02-21T10:15:34.455Z,47.78
2019-02-21T10:18:04.253Z,47.62
2019-02-21T10:20:34.015Z,47.70
2019-02-21T10:23:03.711Z,47.89
2019-02-21T10:25:33.563Z,47.12
2019-02-21T10:28:03.191Z,46.52
2019-02-21T10:30:32.917Z,47.16
2019-02-21T10:33:02.544Z,47.41
2019-02-21T10:35:32.205Z,47.16
2019-02-21T10:38:01.967Z,47.83
2019-02-21T10:40:33.410Z,47.95
2019-02-21T10:43:03.374Z,48.58
2019-02-21T10:45:33.001Z,48.05
2019-02-21T10:48:02.668Z,48.77
2019-02-21T10:50:32.313Z,49.00
2019-02-21T10:53:01.962Z,48.77
2019-02-21T10:55:31.772Z,48.39
2019-02-21T10:58:01.373Z,48.43
2019-02-21T11:00:31.197Z,47.66
2019-02-21T11:03:01.124Z,48.33
2019-02-21T11:05:30.676Z,48.43
2019-02-21T11:08:00.319Z,47.16
2019-02-21T11:10:29.913Z,47.25
2019-02-21T11:12:59.620Z,47.00
2019-02-21T11:15:29.255Z,46.66
2019-02-21T11:17:58.802Z,46.49
2019-02-21T11:20:28.367Z,46.48
2019-02-21T11:22:58.072Z,46.92
2019-02-21T11:25:27.678Z,47.62
2019-02-21T11:27:57.220Z,47.53
2019-02-21T11:30:26.901Z,48.67
2019-02-21T11:32:56.435Z,47.71
2019-02-21T11:35:26.023Z,47.95
2019-02-21T11:37:55.708Z,46.74
2019-02-21T11:40:25.453Z,47.21
2019-02-21T11:42:56.140Z,47.39
2019-02-21T11:45:26.130Z,47.04
2019-02-21T11:47:55.768Z,46.58
2019-02-21T11:50:25.495Z,46.87
2019-02-21T11:52:55.126Z,45.23
2019-02-21T11:55:24.686Z,43.81
2019-02-21T11:57:54.242Z,41.78
2019-02-21T12:00:25.148Z,41.45
2019-02-21T12:02:54.711Z,40.07
2019-02-21T12:05:32.173Z,39.24
2019-02-21T12:07:55.634Z,37.66
2019-02-21T12:10:25.205Z,38.24
2019-02-21T12:12:54.906Z,37.87
2019-02-21T12:15:24.429Z,36.73
2019-02-21T12:17:54.031Z,36.21
2019-02-21T12:20:23.678Z,35.42
2019-02-21T12:22:53.279Z,35.41
2019-02-21T12:25:22.854Z,37.38
2019-02-21T12:27:52.410Z,37.45
2019-02-21T12:30:22.029Z,37.71
2019-02-21T12:32:51.608Z,38.55
2019-02-21T12:35:29.168Z,40.28
2019-02-21T12:37:52.460Z,41.25
2019-02-21T12:40:22.120Z,43.33
2019-02-21T12:42:51.677Z,43.15
2019-02-21T12:45:21.358Z,43.73
2019-02-21T12:47:53.883Z,44.02
2019-02-21T12:50:22.271Z,44.44
2019-02-21T12:52:51.914Z,45.62
2019-02-21T12:55:28.195Z,46.13
2019-02-21T12:57:52.793Z,46.54
2019-02-21T13:00:22.399Z,46.08
2019-02-21T13:02:51.928Z,46.59
2019-02-21T13:05:21.491Z,47.67
2019-02-21T13:07:51.055Z,48.01
2019-02-21T13:10:20.615Z,46.67
2019-02-21T13:12:50.224Z,46.54
2019-02-21T13:15:20.072Z,46.81
2019-02-21T13:17:51.091Z,47.20
2019-02-21T13:20:20.808Z,46.92
2019-02-21T13:22:50.474Z,47.27
2019-02-21T13:25:20.065Z,47.93
2019-02-21T13:27:49.705Z,47.94
2019-02-21T13:30:19.289Z,48.08
2019-02-21T13:32:48.901Z,48.41
2019-02-21T13:35:18.472Z,47.44
2019-02-21T13:37:48.022Z,48.09
2019-02-21T13:40:20.839Z,48.82
2019-02-21T13:42:49.010Z,48.58
2019-02-21T13:45:18.614Z,48.36
2019-02-21T13:47:48.196Z,48.49
2019-02-21T13:50:17.921Z,48.67
2019-02-21T13:52:47.657Z,49.24
2019-02-21T13:55:17.367Z,48.92
2019-02-21T13:57:47.040Z,48.90
2019-02-21T14:00:18.178Z,48.04
2019-02-21T14:02:47.814Z,48.50
2019-02-21T14:05:17.423Z,48.78
2019-02-21T14:07:47.213Z,49.19
2019-02-21T14:10:16.837Z,48.99
2019-02-21T14:12:46.629Z,49.47
2019-02-21T14:15:18.539Z,49.30
2019-02-21T14:17:48.210Z,48.69
2019-02-21T14:20:17.757Z,49.06
2019-02-21T14:22:47.411Z,48.66
2019-02-21T14:25:16.962Z,49.34
2019-02-21T14:27:46.486Z,49.42
2019-02-21T14:30:17.635Z,50.14
2019-02-21T14:32:47.280Z,49.51
2019-02-21T14:35:16.870Z,49.89
2019-02-21T14:37:46.403Z,49.99
2019-02-21T14:40:16.046Z,50.70
2019-02-21T14:42:45.613Z,51.21
2019-02-21T14:45:16.747Z,52.09
2019-02-21T14:47:46.389Z,52.38
2019-02-21T14:50:16.479Z,51.76
2019-02-21T14:52:46.227Z,51.97
2019-02-21T14:55:15.965Z,51.98
2019-02-21T14:57:45.519Z,52.35
2019-02-21T15:00:20.079Z,52.44
2019-02-21T15:02:49.641Z,52.79
2019-02-21T15:05:19.550Z,53.32
2019-02-21T15:07:49.121Z,53.45
2019-02-21T15:10:18.760Z,53.47
2019-02-21T15:12:48.322Z,53.96
2019-02-21T15:15:18.661Z,54.06
2019-02-21T15:17:48.264Z,53.90
2019-02-21T15:20:18.127Z,54.12
2019-02-21T15:22:47.765Z,54.46
2019-02-21T15:25:17.452Z,54.49
2019-02-21T15:27:47.002Z,54.67
2019-02-21T15:30:18.372Z,55.32
2019-02-21T15:32:49.244Z,55.81
2019-02-21T15:35:21.279Z,55.87
2019-02-21T15:37:50.825Z,56.13
2019-02-21T15:40:21.634Z,56.56
2019-02-21T15:42:52.951Z,56.59
2019-02-21T15:45:24.067Z,56.84
2019-02-21T15:47:54.042Z,57.38
2019-02-21T15:50:23.760Z,57.66
2019-02-21T15:52:53.394Z,58.13
2019-02-21T15:55:23.188Z,58.57
2019-02-21T15:58:03.298Z,59.83
2019-02-21T16:00:24.173Z,61.04
2019-02-21T16:02:53.744Z,61.86
2019-02-21T16:05:23.417Z,63.02
2019-02-21T16:07:53.063Z,63.82
2019-02-21T16:10:23.116Z,64.74
2019-02-21T16:12:53.273Z,65.15
2019-02-21T16:15:24.357Z,65.76
2019-02-21T16:17:54.075Z,66.30
2019-02-21T16:20:23.854Z,66.90
2019-02-21T16:22:53.500Z,66.94
2019-02-21T16:25:23.188Z,67.56
2019-02-21T16:27:55.283Z,68.25
2019-02-21T16:30:24.238Z,68.92
2019-02-21T16:32:53.836Z,69.12
2019-02-21T16:35:23.465Z,69.54
2019-02-21T16:37:53.164Z,70.22
2019-02-21T16:40:22.742Z,70.96
2019-02-21T16:42:52.384Z,70.83
2019-02-21T16:45:21.999Z,71.23
2019-02-21T16:47:51.602Z,71.12
2019-02-21T16:50:29.342Z,71.19
2019-02-21T16:52:52.536Z,71.36
2019-02-21T16:55:22.080Z,71.90
2019-02-21T16:57:51.720Z,71.73
2019-02-21T17:00:21.496Z,72.05
2019-02-21T17:02:51.007Z,72.24
2019-02-21T17:05:20.686Z,72.07
2019-02-21T17:07:50.246Z,72.41
2019-02-21T17:10:19.907Z,72.31
2019-02-21T17:12:49.601Z,72.46
2019-02-21T17:15:19.278Z,72.54
2019-02-21T17:17:48.854Z,72.84
2019-02-21T17:20:18.536Z,73.13
2019-02-21T17:22:48.348Z,73.31
2019-02-21T17:25:18.166Z,73.34
2019-02-21T17:27:47.775Z,73.61
2019-02-21T17:30:17.608Z,73.85
2019-02-21T17:32:47.215Z,74.55
2019-02-21T17:35:16.858Z,75.13
2019-02-21T17:37:46.458Z,74.82
2019-02-21T17:40:18.262Z,74.95
2019-02-21T17:42:47.980Z,74.49
2019-02-21T17:45:17.655Z,73.84
2019-02-21T17:47:47.288Z,73.48
2019-02-21T17:50:17.067Z,73.91
2019-02-21T17:52:46.707Z,73.62
2019-02-21T17:55:16.432Z,73.83
2019-02-21T17:57:46.062Z,73.31
2019-02-21T18:00:23.752Z,72.74
2019-02-21T18:02:59.716Z,72.79
2019-02-21T18:05:29.362Z,72.30
2019-02-21T18:08:00.576Z,71.84
2019-02-21T18:10:30.139Z,72.49
2019-02-21T18:12:59.747Z,71.53
2019-02-21T18:15:29.290Z,71.57
2019-02-21T18:17:58.880Z,71.21
2019-02-21T18:20:28.544Z,70.51
2019-02-21T18:22:58.145Z,70.47
2019-02-21T18:25:30.995Z,69.71
2019-02-21T18:28:00.535Z,67.46
2019-02-21T18:30:30.131Z,67.18
2019-02-21T18:32:59.756Z,68.42
2019-02-21T18:35:29.366Z,70.04
2019-02-21T18:37:58.998Z,69.11
2019-02-21T18:40:28.675Z,67.78
2019-02-21T18:42:58.277Z,68.11
2019-02-21T18:45:27.884Z,68.25
2019-02-21T18:47:57.485Z,67.91
2019-02-21T18:50:37.359Z,67.21
2019-02-21T18:52:58.557Z,67.08
2019-02-21T18:55:28.114Z,66.33
2019-02-21T18:57:57.660Z,65.73
2019-02-21T19:00:27.502Z,64.72
2019-02-21T19:02:57.062Z,64.91
2019-02-21T19:05:35.300Z,65.18
2019-02-21T19:08:04.969Z,65.09
2019-02-21T19:10:29.552Z,64.87
2019-02-21T19:12:59.106Z,64.77
2019-02-21T19:15:29.423Z,64.28
2019-02-21T19:17:59.108Z,64.22
2019-02-21T19:20:28.804Z,63.49
2019-02-21T19:22:58.390Z,64.07
2019-02-21T19:25:27.956Z,64.28
2019-02-21T19:27:57.574Z,63.55
2019-02-21T19:30:30.329Z,63.50
2019-02-21T19:33:00.539Z,63.99
2019-02-21T19:35:30.225Z,63.72
2019-02-21T19:38:09.804Z,63.17
2019-02-21T19:40:31.245Z,63.04
2019-02-21T19:43:00.938Z,62.74
2019-02-21T19:45:30.583Z,62.88
2019-02-21T19:48:00.219Z,62.72
2019-02-21T19:50:30.012Z,63.19
2019-02-21T19:52:59.662Z,62.83
2019-02-21T19:55:29.384Z,62.40
2019-02-21T19:57:58.948Z,62.46
2019-02-21T20:00:30.888Z,62.94
2019-02-21T20:03:04.681Z,62.94
2019-02-21T20:05:34.358Z,63.08
2019-02-21T20:08:08.574Z,62.95
2019-02-21T20:10:35.285Z,63.26
2019-02-21T20:13:07.986Z,62.83
2019-02-21T20:15:37.656Z,63.23
2019-02-21T20:18:07.412Z,62.53
2019-02-21T20:20:37.193Z,62.61
2019-02-21T20:23:06.753Z,62.77
2019-02-21T20:25:36.345Z,62.05
2019-02-21T20:28:05.974Z,62.39
2019-02-21T20:30:37.683Z,62.12
2019-02-21T20:33:07.258Z,62.05
2019-02-21T20:35:36.913Z,61.76
2019-02-21T20:38:06.598Z,61.58
2019-02-21T20:40:36.328Z,61.98
2019-02-21T20:43:07.457Z,61.58
2019-02-21T20:45:37.807Z,61.34
2019-02-21T20:48:07.505Z,60.88
2019-02-21T20:50:37.244Z,60.80
2019-02-21T20:53:06.897Z,60.68
2019-02-21T20:55:43.380Z,60.42
2019-02-21T20:58:08.172Z,60.14
2019-02-21T21:00:38.115Z,60.06
2019-02-21T21:03:08.122Z,61.08
2019-02-21T21:05:39.209Z,62.12
2019-02-21T21:08:08.839Z,62.68
2019-02-21T21:10:38.481Z,62.47
2019-02-21T21:13:08.465Z,63.68
2019-02-21T21:15:38.426Z,65.19
2019-02-21T21:18:09.646Z,63.68
2019-02-21T21:20:39.296Z,63.50
2019-02-21T21:23:08.904Z,63.14
2019-02-21T21:25:38.493Z,62.84
2019-02-21T21:28:08.051Z,62.78
2019-02-21T21:30:37.660Z,62.96
2019-02-21T21:33:07.222Z,62.63
2019-02-21T21:35:36.795Z,62.80
2019-02-21T21:38:06.324Z,63.35
2019-02-21T21:40:35.936Z,63.60
2019-02-21T21:43:05.505Z,63.89
2019-02-21T21:45:35.052Z,64.14
2019-02-21T21:48:04.771Z,64.70
2019-02-21T21:50:34.426Z,64.94
2019-02-21T21:53:04.099Z,65.27
2019-02-21T21:55:33.747Z,65.67
2019-02-21T21:58:03.310Z,65.99
2019-02-21T22:00:33.272Z,66.20
2019-02-21T22:03:02.885Z,66.20
2019-02-21T22:05:32.420Z,66.35
2019-02-21T22:08:02.044Z,67.01
2019-02-21T22:10:31.944Z,66.99
2019-02-21T22:13:01.612Z,67.00
2019-02-21T22:15:31.354Z,67.25
2019-02-21T22:18:00.934Z,67.69
2019-02-21T22:20:30.666Z,68.45
2019-02-21T22:23:02.104Z,68.53
2019-02-21T22:25:31.752Z,68.58
2019-02-21T22:28:01.370Z,68.69
2019-02-21T22:30:31.043Z,69.40
2019-02-21T22:33:00.618Z,69.70
2019-02-21T22:35:30.340Z,69.83
2019-02-21T22:37:59.948Z,69.74
2019-02-21T22:40:29.656Z,69.58
2019-02-21T22:42:59.221Z,69.31
2019-02-21T22:45:28.794Z,69.29
2019-02-21T22:47:58.491Z,69.28
2019-02-21T22:50:28.089Z,69.34
2019-02-21T22:52:57.733Z,69.39
2019-02-21T22:55:27.299Z,69.68
2019-02-21T22:57:57.048Z,69.96
2019-02-21T23:01:19.966Z,69.87
2019-02-21T23:03:55.232Z,69.89
2019-02-21T23:06:49.485Z,69.96
2019-02-21T23:09:27.615Z,70.18
2019-02-21T23:11:52.422Z,70.25
2019-02-21T23:14:22.083Z,70.28
2019-02-21T23:16:51.716Z,69.07
2019-02-21T23:19:23.503Z,68.54
2019-02-21T23:21:52.592Z,68.33
2019-02-21T23:24:22.250Z,67.73
2019-02-21T23:26:51.788Z,67.44
2019-02-21T23:29:21.391Z,67.34
2019-02-21T23:31:51.072Z,67.10
2019-02-21T23:34:39.528Z,67.24
2019-02-21T23:37:09.159Z,66.66
2019-02-21T23:39:38.882Z,66.57
2019-02-21T23:42:08.483Z,66.59
2019-02-21T23:44:38.187Z,66.50
2019-02-21T23:47:07.839Z,66.22
2019-02-21T23:49:37.386Z,66.09
2019-02-21T23:52:07.044Z,65.93
2019-02-21T23:54:36.710Z,65.35
2019-02-21T23:57:06.361Z,64.93
2019-02-21T23:59:35.985Z,64.38
